Trochtelborn, Germany

8:21 PM CEST on June 22, 2017 (GMT +0200)
Kleinfahnersche Straße | | Change Station

Elev 702 ft 51.04 °N, 10.89 °E | Updated 3 minutes ago

Light Rain Showers
Light Showers Rain
71.1 °F
Feels Like 73 °F
N
2.5
Wind Variable Wind from ENE
Gusts 7.5 mph

Today
High -- | Low -- °F
--% Chance of Precip.
Yesterday
High -- | Low -- °F
Precip. -- in
Pressure 29.86 in
Visibility 6.2 miles
Clouds Scattered Clouds 6000 ft
Scattered Clouds 10000 ft
Heat Index 73 °F
Dew Point 62 °F
Humidity 74%
Rainfall 0.01 in
Snow Depth Not available.
5:02 AM 9:35 PM
Waning Crescent, 3% visible
METAR EDDE 221750Z 16007KT 9999 VCTS -SHRA SCT060CB SCT100 20/17 Q1011 TEMPO 24020G35KT TSRA
Pressure 29.86 in
Visibility 6.2 miles
Clouds Scattered Clouds 6000 ft
Scattered Clouds 10000 ft
Heat Index 73 °F
Dew Point 62 °F
Humidity 74%
Rainfall 0.01 in
Snow Depth Not available.
5:02 AM 9:35 PM
Waning Crescent, 3% visible
METAR EDDE 221750Z 16007KT 9999 VCTS -SHRA SCT060CB SCT100 20/17 Q1011 TEMPO 24020G35KT TSRA

Get Severe Weather Alerts

Thanks for signing up!

Be on the lookout for a verification email in your inbox.

You'll start receiving the daily forecast at 6 AM.

×

10-Day Weather Forecast

×

Almanac

Astronomy

Jun. 22, 2017 Rise Set
Actual Time
Civil Twilight
Nautical Twilight
Astronomical Twilight
Moon
Length of Visible Light
Length of Day
Tomorrow will be .
, % of the Moon is Illuminated

Today's Extremes

Country Highs Country Lows

Community

WunderPhotos

Category 6

Welcome to Category 6. This is the collective home for Weather Underground's featured writeups by Dr. Jeff Masters (right), Bob Henson (left), Chris Burt, and other regular contributors.

Nearby

Air Quality

  Air Quality AQ Index Pollutant
Not available.

Snow Depth

Station Depth Elevation

Earthquake Activity

City Distance Mag. Time & Date
Minimum magnitude displayed is 2.5.

Coastal Water Temperatures

Place Temperature

Stations

Nearby Weather Stations

Station Location Temp. Windchill Dew Point Humidity Wind Precip. Elev Updated Type